F/V Cote D'ambre — FPEY — position and weather

sailwx.info

Track history (hours):
 
Tides and Currents Weather Stations Pressure Air Temp Water Temp Dewpoint Dewpoint Depression Visibility Wind Speed Wind Dir Waves Ship Positions

F/V Cote D'ambre

Last reported at 2018-Feb-20 05:30 UTC. Time now 2018-Feb-20 05:37 UTC.
Position N 47°35' W 003°22'.

Length 16 m; draft 4 m.

Type: Fishing. MMSI: 227128800.

Date/timePositionNaut miles runAvg speedWind from/ knotsBaromVisibWave heightAir tempDewpointWater temp
2018-Feb-20 05:30N 47°35' W 003°22'5 9.0
2018-Feb-20 05:00N 47°39' W 003°22'4 8.5
2018-Feb-20 04:31N 47°43' W 003°22'0 0.3
2018-Feb-20 03:59N 47°44' W 003°22'0 0.3
2018-Feb-20 03:30N 47°44' W 003°22'0 0.0
2018-Feb-20 03:00N 47°44' W 003°22'0 0.0
2018-Feb-20 02:30N 47°44' W 003°22'2 3.1
2018-Feb-20 02:01N 47°42' W 003°22'4 8.6
2018-Feb-20 01:30N 47°38' W 003°22'4 7.8
2018-Feb-20 01:00N 47°34' W 003°24'4 8.3
2018-Feb-20 00:30N 47°31' W 003°29'4 8.1
2018-Feb-20 00:00N 47°28' W 003°33'1 2.6
2018-Feb-19 23:30N 47°27' W 003°34'2 3.3
2018-Feb-19 23:00N 47°26' W 003°32'2 3.5
2018-Feb-19 22:30N 47°25' W 003°30'2 3.6
2018-Feb-19 22:00N 47°24' W 003°28'2 3.5
2018-Feb-19 21:30N 47°22' W 003°28'6 0.5
2018-Feb-19 09:18N 47°18' W 003°22'1 3.6
2018-Feb-19 09:01N 47°18' W 003°24'2 3.2
2018-Feb-19 08:30N 47°18' W 003°21'2 3.3
2018-Feb-19 07:59N 47°16' W 003°20'1 1.6
2018-Feb-19 07:30N 47°17' W 003°19'2 3.6
2018-Feb-19 07:00N 47°18' W 003°22'2 4.6
2018-Feb-19 06:30N 47°19' W 003°25'4 8.2
2018-Feb-19 06:01N 47°23' W 003°28'3 5.7
2018-Feb-19 05:30N 47°25' W 003°29'1 2.0
2018-Feb-19 05:01N 47°26' W 003°30'2 3.4
2018-Feb-19 04:30N 47°26' W 003°33'2 3.5
2018-Feb-19 04:00N 47°26' W 003°36'1 2.5
2018-Feb-19 03:30N 47°28' W 003°36'1 2.7
2018-Feb-19 03:01N 47°27' W 003°34'2 3.3
2018-Feb-19 02:30N 47°26' W 003°32'2 3.4
2018-Feb-19 02:00N 47°25' W 003°30'2 3.3
2018-Feb-19 01:31N 47°25' W 003°28'2 3.3
2018-Feb-19 01:00N 47°25' W 003°25'2 4.7
2018-Feb-19 00:30N 47°25' W 003°22'1 1.0
2018-Feb-19 00:00N 47°25' W 003°23'1 2.2
2018-Feb-18 23:30N 47°25' W 003°21'2 3.3
2018-Feb-18 23:00N 47°25' W 003°19'2 3.5
2018-Feb-18 22:30N 47°25' W 003°17'2 3.6
2018-Feb-18 22:00N 47°26' W 003°14'2 3.5
2018-Feb-18 21:30N 47°26' W 003°11'1 2.8
2018-Feb-18 21:00N 47°26' W 003°14'2 3.1
2018-Feb-18 20:30N 47°25' W 003°15'2 3.0
2018-Feb-18 20:00N 47°25' W 003°17'2 3.3
2018-Feb-18 19:30N 47°25' W 003°20'2 3.0
2018-Feb-18 19:00N 47°24' W 003°21'4 7.3
2018-Feb-18 18:30N 47°20' W 003°23'2 3.1
2018-Feb-18 18:00N 47°19' W 003°24'1 1.7
2018-Feb-18 17:30N 47°18' W 003°24'2 3.2
2018-Feb-18 17:00N 47°19' W 003°21'1 2.9
2018-Feb-18 16:30N 47°19' W 003°23'1 3.0
2018-Feb-18 16:00N 47°18' W 003°22'2 3.9
2018-Feb-18 15:30N 47°19' W 003°24'1 2.0
2018-Feb-18 15:00N 47°19' W 003°26'0 0.7
2018-Feb-18 14:30N 47°19' W 003°25'2 3.0
2018-Feb-18 14:00N 47°18' W 003°23'1 2.0
2018-Feb-18 13:30N 47°19' W 003°22'2 3.3
2018-Feb-18 13:00N 47°20' W 003°23'1 2.5
2018-Feb-18 12:30N 47°21' W 003°24'4 2.7
2018-Feb-18 11:01N 47°25' W 003°23'0 3.4
2018-Feb-18 11:00N 47°25' W 003°23'2 3.3
2018-Feb-18 10:30N 47°25' W 003°21'1 1.8
2018-Feb-18 10:00N 47°25' W 003°20'2 3.3
2018-Feb-18 09:30N 47°25' W 003°22'1 1.9
2018-Feb-18 09:00N 47°24' W 003°23'1 2.5
2018-Feb-18 08:30N 47°25' W 003°21'1 1.4
2018-Feb-18 08:00N 47°25' W 003°20'2 3.6
2018-Feb-18 07:30N 47°25' W 003°17'2 3.5
2018-Feb-18 07:00N 47°26' W 003°15'2 3.4
2018-Feb-18 06:30N 47°26' W 003°12'1 1.5
2018-Feb-18 06:00N 47°27' W 003°13'2 3.5
2018-Feb-18 05:30N 47°26' W 003°15'2 3.1
2018-Feb-18 05:00N 47°25' W 003°16'2 4.3
2018-Feb-18 04:30N 47°25' W 003°20'1 2.6
2018-Feb-18 04:00N 47°25' W 003°21'1 2.4
2018-Feb-18 03:31N 47°25' W 003°23'1 2.8
2018-Feb-18 03:00N 47°25' W 003°21'1 2.8
2018-Feb-18 02:31N 47°25' W 003°19'1 2.8
2018-Feb-18 02:01N 47°25' W 003°17'1 2.7
2018-Feb-18 01:30N 47°26' W 003°15'1 2.9
2018-Feb-18 01:01N 47°26' W 003°13'1 1.6
2018-Feb-18 00:31N 47°26' W 003°12'2 3.6
2018-Feb-18 00:00N 47°26' W 003°15'1 1.0
2018-Feb-17 23:31N 47°26' W 003°15'1 2.9
2018-Feb-17 23:00N 47°26' W 003°13'1 2.1
2018-Feb-17 22:30N 47°26' W 003°12'2 3.2
2018-Feb-17 22:00N 47°26' W 003°14'2 3.3
2018-Feb-17 21:30N 47°25' W 003°16'2 3.2
2018-Feb-17 21:00N 47°25' W 003°19'2 3.3
2018-Feb-17 20:30N 47°25' W 003°21'1 2.6
2018-Feb-17 20:00N 47°25' W 003°23'2 3.1
2018-Feb-17 19:30N 47°25' W 003°21'2 3.2
2018-Feb-17 19:00N 47°25' W 003°18'2 3.8
2018-Feb-17 18:30N 47°25' W 003°21'1 2.6
2018-Feb-17 18:00N 47°25' W 003°23'2 3.1
2018-Feb-17 17:30N 47°25' W 003°21'1 2.5
2018-Feb-17 17:00N 47°25' W 003°19'2 3.5
2018-Feb-17 16:30N 47°25' W 003°22'1 2.0
2018-Feb-17 16:00N 47°24' W 003°22'2 3.2
2018-Feb-17 15:30N 47°25' W 003°20'2 3.7
2018-Feb-17 15:00N 47°27' W 003°20'4 8.6
2018-Feb-17 14:30N 47°31' W 003°23'1 2.8
2018-Feb-17 14:00N 47°31' W 003°24'2 3.6
2018-Feb-17 13:30N 47°31' W 003°27'1 3.0
2018-Feb-17 13:00N 47°32' W 003°27'1 2.6
2018-Feb-17 12:30N 47°32' W 003°25'2 3.5
2018-Feb-17 12:00N 47°30' W 003°24'1 2.6
2018-Feb-17 11:30N 47°31' W 003°23'2 3.3
2018-Feb-17 11:00N 47°32' W 003°25'2 3.5
2018-Feb-17 10:30N 47°33' W 003°27'1 2.0
2018-Feb-17 10:00N 47°34' W 003°28'2 3.2
2018-Feb-17 09:30N 47°33' W 003°26'2 3.6
2018-Feb-17 09:00N 47°31' W 003°24'1 3.0
2018-Feb-17 08:30N 47°30' W 003°24'2 3.0
2018-Feb-17 07:59N 47°29' W 003°23'1 3.1
2018-Feb-17 07:30N 47°28' W 003°21'2 3.2
2018-Feb-17 07:00N 47°30' W 003°21'2 3.4
2018-Feb-17 06:30N 47°31' W 003°23'2 3.6
2018-Feb-17 06:00N 47°32' W 003°25'1 1.4
2018-Feb-17 05:30N 47°33' W 003°25'4 7.9
2018-Feb-17 05:00N 47°36' W 003°22'4 8.2
2018-Feb-17 04:30N 47°40' W 003°22'3 6.4
2018-Feb-17 03:58N 47°44' W 003°22'0 0.0
2018-Feb-17 03:28N 47°44' W 003°22'0 0.2
2018-Feb-17 02:59N 47°44' W 003°22'0 0.3
2018-Feb-17 02:28N 47°44' W 003°22'0 0.0
2018-Feb-17 01:58N 47°44' W 003°22'0 0.0
2018-Feb-17 01:28N 47°44' W 003°22'3 7.3
2018-Feb-17 01:00N 47°40' W 003°22'4 8.9
2018-Feb-17 00:30N 47°36' W 003°22'4 8.8
2018-Feb-17 00:00N 47°32' W 003°24'5 9.0
2018-Feb-16 23:30N 47°27' W 003°26'5 9.1
2018-Feb-16 23:00N 47°23' W 003°27'4 8.8
2018-Feb-16 22:30N 47°19' W 003°29'4 8.3
2018-Feb-16 22:00N 47°15' W 003°30'24 1.1
2018-Feb-15 23:33N 46°54' W 003°49'  
2018-Feb-13 03:21N 47°44' W 003°22'0 0.0
2018-Feb-13 03:00N 47°44' W 003°22'0 0.0
2018-Feb-13 02:30N 47°44' W 003°22'0 0.0
2018-Feb-13 02:00N 47°44' W 003°22'1 1.5
2018-Feb-13 01:30N 47°43' W 003°22'4 8.4
2018-Feb-13 01:01N 47°39' W 003°22'4 8.2
2018-Feb-13 00:30N 47°35' W 003°23'4 8.3
2018-Feb-13 00:01N 47°31' W 003°24'4 8.2
2018-Feb-12 23:31N 47°27' W 003°25'4 8.3
2018-Feb-12 23:00N 47°23' W 003°27'4 8.4
2018-Feb-12 22:31N 47°19' W 003°28'4 8.4
2018-Feb-12 21:59N 47°14' W 003°30'8 0.3
2018-Feb-11 20:11N 47°09' W 003°22'2 8.0
2018-Feb-11 19:57N 47°11' W 003°21'4 7.7
2018-Feb-11 19:24N 47°14' W 003°17'2 2.9
2018-Feb-11 18:45N 47°16' W 003°18'1 3.4
2018-Feb-11 18:30N 47°16' W 003°19'2 3.5
2018-Feb-11 18:00N 47°17' W 003°21'2 3.5
2018-Feb-11 17:30N 47°18' W 003°23'1 2.1
2018-Feb-11 17:00N 47°18' W 003°22'2 3.2
2018-Feb-11 16:30N 47°17' W 003°20'1 2.0
2018-Feb-11 16:00N 47°17' W 003°19'2 3.5
2018-Feb-11 15:29N 47°18' W 003°21'2 3.7
2018-Feb-11 15:00N 47°18' W 003°24'4 7.6
2018-Feb-11 14:30N 47°22' W 003°23'4 8.1
2018-Feb-11 14:00N 47°26' W 003°22'4 7.5
2018-Feb-11 13:30N 47°30' W 003°21'1 3.0
2018-Feb-11 13:00N 47°30' W 003°23'1 2.8
2018-Feb-11 12:30N 47°29' W 003°23'2 3.1
2018-Feb-11 12:00N 47°28' W 003°21'2 3.3
2018-Feb-11 11:30N 47°30' W 003°21'2 3.8
2018-Feb-11 11:00N 47°31' W 003°23'2 3.6
2018-Feb-11 10:30N 47°32' W 003°25'0 0.5
2018-Feb-11 10:00N 47°32' W 003°25'2 3.5
2018-Feb-11 09:30N 47°31' W 003°25'2 3.1
2018-Feb-11 09:00N 47°30' W 003°23'1 2.4
2018-Feb-11 08:30N 47°30' W 003°22'2 3.6
2018-Feb-11 08:00N 47°31' W 003°24'2 3.7
2018-Feb-11 07:30N 47°33' W 003°26'2 4.7
2018-Feb-11 07:00N 47°34' W 003°24'4 7.3
2018-Feb-11 06:30N 47°38' W 003°22'6 0.2
2018-Feb-10 06:11N 47°44' W 003°22'0 0.0
2018-Feb-10 05:59N 47°44' W 003°22'  
Track history (hours):
 
Tides and Currents Weather Stations Pressure Air Temp Water Temp Dewpoint Dewpoint Depression Visibility Wind Speed Wind Dir Waves Ship Positions

F/V Cote D'ambre

Last reported at 2018-Feb-20 05:30 UTC. Time now 2018-Feb-20 05:37 UTC.
Position N 47°35' W 003°22'.

Length 16 m; draft 4 m.

Type: Fishing. MMSI: 227128800.

Date/timePositionNaut miles runAvg speedWind from/ knotsBaromVisibWave heightAir tempDewpointWater temp
2018-Feb-20 05:30N 47°35' W 003°22'5 9.0
2018-Feb-20 05:00N 47°39' W 003°22'4 8.5
2018-Feb-20 04:31N 47°43' W 003°22'0 0.3
2018-Feb-20 03:59N 47°44' W 003°22'0 0.3
2018-Feb-20 03:30N 47°44' W 003°22'0 0.0
2018-Feb-20 03:00N 47°44' W 003°22'0 0.0
2018-Feb-20 02:30N 47°44' W 003°22'2 3.1
2018-Feb-20 02:01N 47°42' W 003°22'4 8.6
2018-Feb-20 01:30N 47°38' W 003°22'4 7.8
2018-Feb-20 01:00N 47°34' W 003°24'4 8.3
2018-Feb-20 00:30N 47°31' W 003°29'4 8.1
2018-Feb-20 00:00N 47°28' W 003°33'1 2.6
2018-Feb-19 23:30N 47°27' W 003°34'2 3.3
2018-Feb-19 23:00N 47°26' W 003°32'2 3.5
2018-Feb-19 22:30N 47°25' W 003°30'2 3.6
2018-Feb-19 22:00N 47°24' W 003°28'2 3.5
2018-Feb-19 21:30N 47°22' W 003°28'6 0.5
2018-Feb-19 09:18N 47°18' W 003°22'1 3.6
2018-Feb-19 09:01N 47°18' W 003°24'2 3.2
2018-Feb-19 08:30N 47°18' W 003°21'2 3.3
2018-Feb-19 07:59N 47°16' W 003°20'1 1.6
2018-Feb-19 07:30N 47°17' W 003°19'2 3.6
2018-Feb-19 07:00N 47°18' W 003°22'2 4.6
2018-Feb-19 06:30N 47°19' W 003°25'4 8.2
2018-Feb-19 06:01N 47°23' W 003°28'3 5.7
2018-Feb-19 05:30N 47°25' W 003°29'1 2.0
2018-Feb-19 05:01N 47°26' W 003°30'2 3.4
2018-Feb-19 04:30N 47°26' W 003°33'2 3.5
2018-Feb-19 04:00N 47°26' W 003°36'1 2.5
2018-Feb-19 03:30N 47°28' W 003°36'1 2.7
2018-Feb-19 03:01N 47°27' W 003°34'2 3.3
2018-Feb-19 02:30N 47°26' W 003°32'2 3.4
2018-Feb-19 02:00N 47°25' W 003°30'2 3.3
2018-Feb-19 01:31N 47°25' W 003°28'2 3.3
2018-Feb-19 01:00N 47°25' W 003°25'2 4.7
2018-Feb-19 00:30N 47°25' W 003°22'1 1.0
2018-Feb-19 00:00N 47°25' W 003°23'1 2.2
2018-Feb-18 23:30N 47°25' W 003°21'2 3.3
2018-Feb-18 23:00N 47°25' W 003°19'2 3.5
2018-Feb-18 22:30N 47°25' W 003°17'2 3.6
2018-Feb-18 22:00N 47°26' W 003°14'2 3.5
2018-Feb-18 21:30N 47°26' W 003°11'1 2.8
2018-Feb-18 21:00N 47°26' W 003°14'2 3.1
2018-Feb-18 20:30N 47°25' W 003°15'2 3.0
2018-Feb-18 20:00N 47°25' W 003°17'2 3.3
2018-Feb-18 19:30N 47°25' W 003°20'2 3.0
2018-Feb-18 19:00N 47°24' W 003°21'4 7.3
2018-Feb-18 18:30N 47°20' W 003°23'2 3.1
2018-Feb-18 18:00N 47°19' W 003°24'1 1.7
2018-Feb-18 17:30N 47°18' W 003°24'2 3.2
2018-Feb-18 17:00N 47°19' W 003°21'1 2.9
2018-Feb-18 16:30N 47°19' W 003°23'1 3.0
2018-Feb-18 16:00N 47°18' W 003°22'2 3.9
2018-Feb-18 15:30N 47°19' W 003°24'1 2.0
2018-Feb-18 15:00N 47°19' W 003°26'0 0.7
2018-Feb-18 14:30N 47°19' W 003°25'2 3.0
2018-Feb-18 14:00N 47°18' W 003°23'1 2.0
2018-Feb-18 13:30N 47°19' W 003°22'2 3.3
2018-Feb-18 13:00N 47°20' W 003°23'1 2.5
2018-Feb-18 12:30N 47°21' W 003°24'4 2.7
2018-Feb-18 11:01N 47°25' W 003°23'0 3.4
2018-Feb-18 11:00N 47°25' W 003°23'2 3.3
2018-Feb-18 10:30N 47°25' W 003°21'1 1.8
2018-Feb-18 10:00N 47°25' W 003°20'2 3.3
2018-Feb-18 09:30N 47°25' W 003°22'1 1.9
2018-Feb-18 09:00N 47°24' W 003°23'1 2.5
2018-Feb-18 08:30N 47°25' W 003°21'1 1.4
2018-Feb-18 08:00N 47°25' W 003°20'2 3.6
2018-Feb-18 07:30N 47°25' W 003°17'2 3.5
2018-Feb-18 07:00N 47°26' W 003°15'2 3.4
2018-Feb-18 06:30N 47°26' W 003°12'1 1.5
2018-Feb-18 06:00N 47°27' W 003°13'2 3.5
2018-Feb-18 05:30N 47°26' W 003°15'2 3.1
2018-Feb-18 05:00N 47°25' W 003°16'2 4.3
2018-Feb-18 04:30N 47°25' W 003°20'1 2.6
2018-Feb-18 04:00N 47°25' W 003°21'1 2.4
2018-Feb-18 03:31N 47°25' W 003°23'1 2.8
2018-Feb-18 03:00N 47°25' W 003°21'1 2.8
2018-Feb-18 02:31N 47°25' W 003°19'1 2.8
2018-Feb-18 02:01N 47°25' W 003°17'1 2.7
2018-Feb-18 01:30N 47°26' W 003°15'1 2.9
2018-Feb-18 01:01N 47°26' W 003°13'1 1.6
2018-Feb-18 00:31N 47°26' W 003°12'2 3.6
2018-Feb-18 00:00N 47°26' W 003°15'1 1.0
2018-Feb-17 23:31N 47°26' W 003°15'1 2.9
2018-Feb-17 23:00N 47°26' W 003°13'1 2.1
2018-Feb-17 22:30N 47°26' W 003°12'2 3.2
2018-Feb-17 22:00N 47°26' W 003°14'2 3.3
2018-Feb-17 21:30N 47°25' W 003°16'2 3.2
2018-Feb-17 21:00N 47°25' W 003°19'2 3.3
2018-Feb-17 20:30N 47°25' W 003°21'1 2.6
2018-Feb-17 20:00N 47°25' W 003°23'2 3.1
2018-Feb-17 19:30N 47°25' W 003°21'2 3.2
2018-Feb-17 19:00N 47°25' W 003°18'2 3.8
2018-Feb-17 18:30N 47°25' W 003°21'1 2.6
2018-Feb-17 18:00N 47°25' W 003°23'2 3.1
2018-Feb-17 17:30N 47°25' W 003°21'1 2.5
2018-Feb-17 17:00N 47°25' W 003°19'2 3.5
2018-Feb-17 16:30N 47°25' W 003°22'1 2.0
2018-Feb-17 16:00N 47°24' W 003°22'2 3.2
2018-Feb-17 15:30N 47°25' W 003°20'2 3.7
2018-Feb-17 15:00N 47°27' W 003°20'4 8.6
2018-Feb-17 14:30N 47°31' W 003°23'1 2.8
2018-Feb-17 14:00N 47°31' W 003°24'2 3.6
2018-Feb-17 13:30N 47°31' W 003°27'1 3.0
2018-Feb-17 13:00N 47°32' W 003°27'1 2.6
2018-Feb-17 12:30N 47°32' W 003°25'2 3.5
2018-Feb-17 12:00N 47°30' W 003°24'1 2.6
2018-Feb-17 11:30N 47°31' W 003°23'2 3.3
2018-Feb-17 11:00N 47°32' W 003°25'2 3.5
2018-Feb-17 10:30N 47°33' W 003°27'1 2.0
2018-Feb-17 10:00N 47°34' W 003°28'2 3.2
2018-Feb-17 09:30N 47°33' W 003°26'2 3.6
2018-Feb-17 09:00N 47°31' W 003°24'1 3.0
2018-Feb-17 08:30N 47°30' W 003°24'2 3.0
2018-Feb-17 07:59N 47°29' W 003°23'1 3.1
2018-Feb-17 07:30N 47°28' W 003°21'2 3.2
2018-Feb-17 07:00N 47°30' W 003°21'2 3.4
2018-Feb-17 06:30N 47°31' W 003°23'2 3.6
2018-Feb-17 06:00N 47°32' W 003°25'1 1.4
2018-Feb-17 05:30N 47°33' W 003°25'4 7.9
2018-Feb-17 05:00N 47°36' W 003°22'4 8.2
2018-Feb-17 04:30N 47°40' W 003°22'3 6.4
2018-Feb-17 03:58N 47°44' W 003°22'0 0.0
2018-Feb-17 03:28N 47°44' W 003°22'0 0.2
2018-Feb-17 02:59N 47°44' W 003°22'0 0.3
2018-Feb-17 02:28N 47°44' W 003°22'0 0.0
2018-Feb-17 01:58N 47°44' W 003°22'0 0.0
2018-Feb-17 01:28N 47°44' W 003°22'3 7.3
2018-Feb-17 01:00N 47°40' W 003°22'4 8.9
2018-Feb-17 00:30N 47°36' W 003°22'4 8.8
2018-Feb-17 00:00N 47°32' W 003°24'5 9.0
2018-Feb-16 23:30N 47°27' W 003°26'5 9.1
2018-Feb-16 23:00N 47°23' W 003°27'4 8.8
2018-Feb-16 22:30N 47°19' W 003°29'4 8.3
2018-Feb-16 22:00N 47°15' W 003°30'24 1.1
2018-Feb-15 23:33N 46°54' W 003°49'  
2018-Feb-13 03:21N 47°44' W 003°22'0 0.0
2018-Feb-13 03:00N 47°44' W 003°22'0 0.0
2018-Feb-13 02:30N 47°44' W 003°22'0 0.0
2018-Feb-13 02:00N 47°44' W 003°22'1 1.5
2018-Feb-13 01:30N 47°43' W 003°22'4 8.4
2018-Feb-13 01:01N 47°39' W 003°22'4 8.2
2018-Feb-13 00:30N 47°35' W 003°23'4 8.3
2018-Feb-13 00:01N 47°31' W 003°24'4 8.2
2018-Feb-12 23:31N 47°27' W 003°25'4 8.3
2018-Feb-12 23:00N 47°23' W 003°27'4 8.4
2018-Feb-12 22:31N 47°19' W 003°28'4 8.4
2018-Feb-12 21:59N 47°14' W 003°30'8 0.3
2018-Feb-11 20:11N 47°09' W 003°22'2 8.0
2018-Feb-11 19:57N 47°11' W 003°21'4 7.7
2018-Feb-11 19:24N 47°14' W 003°17'2 2.9
2018-Feb-11 18:45N 47°16' W 003°18'1 3.4
2018-Feb-11 18:30N 47°16' W 003°19'2 3.5
2018-Feb-11 18:00N 47°17' W 003°21'2 3.5
2018-Feb-11 17:30N 47°18' W 003°23'1 2.1
2018-Feb-11 17:00N 47°18' W 003°22'2 3.2
2018-Feb-11 16:30N 47°17' W 003°20'1 2.0
2018-Feb-11 16:00N 47°17' W 003°19'2 3.5
2018-Feb-11 15:29N 47°18' W 003°21'2 3.7
2018-Feb-11 15:00N 47°18' W 003°24'4 7.6
2018-Feb-11 14:30N 47°22' W 003°23'4 8.1
2018-Feb-11 14:00N 47°26' W 003°22'4 7.5
2018-Feb-11 13:30N 47°30' W 003°21'1 3.0
2018-Feb-11 13:00N 47°30' W 003°23'1 2.8
2018-Feb-11 12:30N 47°29' W 003°23'2 3.1
2018-Feb-11 12:00N 47°28' W 003°21'2 3.3
2018-Feb-11 11:30N 47°30' W 003°21'2 3.8
2018-Feb-11 11:00N 47°31' W 003°23'2 3.6
2018-Feb-11 10:30N 47°32' W 003°25'0 0.5
2018-Feb-11 10:00N 47°32' W 003°25'2 3.5
2018-Feb-11 09:30N 47°31' W 003°25'2 3.1
2018-Feb-11 09:00N 47°30' W 003°23'1 2.4
2018-Feb-11 08:30N 47°30' W 003°22'2 3.6
2018-Feb-11 08:00N 47°31' W 003°24'2 3.7
2018-Feb-11 07:30N 47°33' W 003°26'2 4.7
2018-Feb-11 07:00N 47°34' W 003°24'4 7.3
2018-Feb-11 06:30N 47°38' W 003°22'6 0.2
2018-Feb-10 06:11N 47°44' W 003°22'0 0.0
2018-Feb-10 05:59N 47°44' W 003°22'  

Dump ship's entire track history